sensor_id;sensor_type;location;lat;lon;timestamp;P1;durP1;ratioP1;P2;durP2;ratioP2
80891;SDS011;70343;51.530;5.050;2023-07-29T00:01:24;9.77;;;5.68;;
80891;SDS011;70343;51.530;5.050;2023-07-29T00:04:33;9.05;;;5.93;;
80891;SDS011;70343;51.530;5.050;2023-07-29T00:07:41;7.03;;;5.55;;
80891;SDS011;70343;51.530;5.050;2023-07-29T00:10:56;8.65;;;5.80;;
80891;SDS011;70343;51.530;5.050;2023-07-29T00:17:35;8.35;;;6.30;;
80891;SDS011;70343;51.530;5.050;2023-07-29T00:23:44;9.25;;;5.63;;
80891;SDS011;70343;51.530;5.050;2023-07-29T00:26:35;6.93;;;5.60;;
80891;SDS011;70343;51.530;5.050;2023-07-29T00:29:23;11.52;;;6.57;;
80891;SDS011;70343;51.530;5.050;2023-07-29T00:32:32;7.15;;;6.13;;
80891;SDS011;70343;51.530;5.050;2023-07-29T00:40:19;8.50;;;6.25;;
80891;SDS011;70343;51.530;5.050;2023-07-29T00:43:26;6.88;;;6.03;;
80891;SDS011;70343;51.530;5.050;2023-07-29T00:53:37;7.05;;;5.70;;
80891;SDS011;70343;51.530;5.050;2023-07-29T00:56:37;8.48;;;6.50;;
80891;SDS011;70343;51.530;5.050;2023-07-29T00:59:39;8.35;;;7.03;;
80891;SDS011;70343;51.530;5.050;2023-07-29T01:05:44;8.10;;;6.00;;
80891;SDS011;70343;51.530;5.050;2023-07-29T01:09:02;8.65;;;6.80;;
80891;SDS011;70343;51.530;5.050;2023-07-29T01:25:22;7.88;;;5.85;;
80891;SDS011;70343;51.530;5.050;2023-07-29T01:29:20;7.10;;;5.35;;
80891;SDS011;70343;51.530;5.050;2023-07-29T01:32:19;8.73;;;5.05;;
80891;SDS011;70343;51.530;5.050;2023-07-29T01:43:46;6.32;;;4.63;;
80891;SDS011;70343;51.530;5.050;2023-07-29T01:57:49;7.15;;;3.58;;
80891;SDS011;70343;51.530;5.050;2023-07-29T02:11:30;3.28;;;2.40;;
80891;SDS011;70343;51.530;5.050;2023-07-29T02:18:17;4.68;;;2.75;;
80891;SDS011;70343;51.530;5.050;2023-07-29T02:21:42;4.07;;;2.70;;
80891;SDS011;70343;51.530;5.050;2023-07-29T02:24:49;3.67;;;2.88;;
80891;SDS011;70343;51.530;5.050;2023-07-29T02:27:29;4.13;;;2.53;;
80891;SDS011;70343;51.530;5.050;2023-07-29T02:40:43;3.85;;;2.60;;
80891;SDS011;70343;51.530;5.050;2023-07-29T02:43:55;3.65;;;2.70;;
80891;SDS011;70343;51.530;5.050;2023-07-29T02:47:02;4.53;;;2.20;;
80891;SDS011;70343;51.530;5.050;2023-07-29T02:53:47;4.80;;;3.17;;
80891;SDS011;70343;51.530;5.050;2023-07-29T02:57:14;4.07;;;3.20;;
80891;SDS011;70343;51.530;5.050;2023-07-29T03:00:41;5.05;;;3.17;;
80891;SDS011;70343;51.530;5.050;2023-07-29T03:03:58;4.20;;;3.33;;
80891;SDS011;70343;51.530;5.050;2023-07-29T03:13:36;5.70;;;3.47;;
80891;SDS011;70343;51.530;5.050;2023-07-29T03:20:07;8.30;;;3.60;;
80891;SDS011;70343;51.530;5.050;2023-07-29T03:23:06;6.13;;;4.07;;
80891;SDS011;70343;51.530;5.050;2023-07-29T03:26:23;3.83;;;3.03;;
80891;SDS011;70343;51.530;5.050;2023-07-29T03:29:13;5.07;;;3.30;;
80891;SDS011;70343;51.530;5.050;2023-07-29T03:32:23;6.47;;;3.72;;
80891;SDS011;70343;51.530;5.050;2023-07-29T03:35:41;4.25;;;3.20;;
80891;SDS011;70343;51.530;5.050;2023-07-29T03:38:41;5.25;;;3.05;;
80891;SDS011;70343;51.530;5.050;2023-07-29T03:45:33;4.10;;;3.30;;
80891;SDS011;70343;51.530;5.050;2023-07-29T03:49:17;4.13;;;3.35;;
80891;SDS011;70343;51.530;5.050;2023-07-29T03:56:25;7.25;;;3.80;;
80891;SDS011;70343;51.530;5.050;2023-07-29T04:07:24;5.32;;;3.40;;
80891;SDS011;70343;51.530;5.050;2023-07-29T04:14:01;5.78;;;3.25;;
80891;SDS011;70343;51.530;5.050;2023-07-29T04:17:38;4.07;;;3.22;;
80891;SDS011;70343;51.530;5.050;2023-07-29T04:21:06;4.65;;;3.28;;
80891;SDS011;70343;51.530;5.050;2023-07-29T04:24:16;4.55;;;3.70;;
80891;SDS011;70343;51.530;5.050;2023-07-29T04:27:47;3.40;;;3.00;;
80891;SDS011;70343;51.530;5.050;2023-07-29T04:34:37;4.28;;;2.88;;
80891;SDS011;70343;51.530;5.050;2023-07-29T04:41:50;4.40;;;3.45;;
80891;SDS011;70343;51.530;5.050;2023-07-29T04:45:13;4.22;;;3.38;;
80891;SDS011;70343;51.530;5.050;2023-07-29T04:48:53;4.82;;;2.63;;
80891;SDS011;70343;51.530;5.050;2023-07-29T04:59:42;5.30;;;2.67;;
80891;SDS011;70343;51.530;5.050;2023-07-29T05:02:48;4.32;;;2.38;;
80891;SDS011;70343;51.530;5.050;2023-07-29T05:09:48;3.10;;;2.30;;
80891;SDS011;70343;51.530;5.050;2023-07-29T05:13:15;3.47;;;2.63;;
80891;SDS011;70343;51.530;5.050;2023-07-29T05:19:29;2.85;;;2.53;;
80891;SDS011;70343;51.530;5.050;2023-07-29T05:22:31;3.55;;;2.47;;
80891;SDS011;70343;51.530;5.050;2023-07-29T05:31:51;3.00;;;2.70;;
80891;SDS011;70343;51.530;5.050;2023-07-29T05:53:18;4.88;;;3.40;;
80891;SDS011;70343;51.530;5.050;2023-07-29T05:56:31;3.90;;;3.42;;
80891;SDS011;70343;51.530;5.050;2023-07-29T06:00:08;6.18;;;3.22;;
80891;SDS011;70343;51.530;5.050;2023-07-29T06:05:57;3.78;;;2.90;;
80891;SDS011;70343;51.530;5.050;2023-07-29T06:09:23;5.63;;;3.47;;
80891;SDS011;70343;51.530;5.050;2023-07-29T06:12:05;6.43;;;3.78;;
80891;SDS011;70343;51.530;5.050;2023-07-29T06:15:25;5.50;;;3.55;;
80891;SDS011;70343;51.530;5.050;2023-07-29T06:18:27;5.90;;;3.35;;
80891;SDS011;70343;51.530;5.050;2023-07-29T06:21:11;4.38;;;3.00;;
80891;SDS011;70343;51.530;5.050;2023-07-29T06:26:58;5.93;;;3.15;;
80891;SDS011;70343;51.530;5.050;2023-07-29T06:33:52;3.17;;;2.47;;
80891;SDS011;70343;51.530;5.050;2023-07-29T06:36:59;2.63;;;2.40;;
80891;SDS011;70343;51.530;5.050;2023-07-29T06:40:13;3.83;;;2.92;;
80891;SDS011;70343;51.530;5.050;2023-07-29T06:43:03;4.03;;;2.58;;
80891;SDS011;70343;51.530;5.050;2023-07-29T06:45:44;3.00;;;2.20;;
80891;SDS011;70343;51.530;5.050;2023-07-29T06:52:59;3.40;;;2.60;;
80891;SDS011;70343;51.530;5.050;2023-07-29T06:59:24;3.72;;;2.40;;
80891;SDS011;70343;51.530;5.050;2023-07-29T07:02:44;4.15;;;2.83;;
80891;SDS011;70343;51.530;5.050;2023-07-29T07:06:30;3.13;;;2.58;;
80891;SDS011;70343;51.530;5.050;2023-07-29T07:09:42;4.30;;;2.50;;
80891;SDS011;70343;51.530;5.050;2023-07-29T07:13:08;2.75;;;2.08;;
80891;SDS011;70343;51.530;5.050;2023-07-29T07:16:10;5.05;;;2.53;;
80891;SDS011;70343;51.530;5.050;2023-07-29T07:19:19;3.42;;;2.58;;
80891;SDS011;70343;51.530;5.050;2023-07-29T07:34:31;2.95;;;2.30;;
80891;SDS011;70343;51.530;5.050;2023-07-29T07:37:48;3.22;;;2.58;;
80891;SDS011;70343;51.530;5.050;2023-07-29T07:41:02;2.35;;;2.15;;
80891;SDS011;70343;51.530;5.050;2023-07-29T07:44:51;3.28;;;2.17;;
80891;SDS011;70343;51.530;5.050;2023-07-29T07:47:40;3.28;;;2.28;;
80891;SDS011;70343;51.530;5.050;2023-07-29T07:50:30;3.20;;;2.05;;
80891;SDS011;70343;51.530;5.050;2023-07-29T07:53:19;4.38;;;2.30;;
80891;SDS011;70343;51.530;5.050;2023-07-29T07:59:09;3.75;;;2.28;;
80891;SDS011;70343;51.530;5.050;2023-07-29T08:01:59;2.63;;;2.10;;
80891;SDS011;70343;51.530;5.050;2023-07-29T08:04:56;5.25;;;2.60;;
80891;SDS011;70343;51.530;5.050;2023-07-29T08:07:35;2.63;;;2.17;;
80891;SDS011;70343;51.530;5.050;2023-07-29T08:10:20;2.50;;;2.08;;
80891;SDS011;70343;51.530;5.050;2023-07-29T08:13:07;3.05;;;2.13;;
80891;SDS011;70343;51.530;5.050;2023-07-29T08:16:14;2.53;;;2.08;;
80891;SDS011;70343;51.530;5.050;2023-07-29T08:19:05;3.08;;;2.17;;
80891;SDS011;70343;51.530;5.050;2023-07-29T08:22:23;2.17;;;1.73;;
80891;SDS011;70343;51.530;5.050;2023-07-29T08:24:59;3.47;;;1.70;;
80891;SDS011;70343;51.530;5.050;2023-07-29T08:27:37;3.53;;;2.05;;
80891;SDS011;70343;51.530;5.050;2023-07-29T08:30:11;3.60;;;1.60;;
80891;SDS011;70343;51.530;5.050;2023-07-29T08:32:54;1.90;;;1.52;;
80891;SDS011;70343;51.530;5.050;2023-07-29T08:35:51;4.68;;;2.22;;
80891;SDS011;70343;51.530;5.050;2023-07-29T08:38:40;1.88;;;1.48;;
80891;SDS011;70343;51.530;5.050;2023-07-29T08:41:26;2.17;;;1.25;;
80891;SDS011;70343;51.530;5.050;2023-07-29T08:44:42;6.68;;;1.65;;
80891;SDS011;70343;51.530;5.050;2023-07-29T08:47:20;2.65;;;1.45;;
80891;SDS011;70343;51.530;5.050;2023-07-29T08:50:09;3.22;;;1.50;;
80891;SDS011;70343;51.530;5.050;2023-07-29T08:53:01;2.15;;;1.42;;
80891;SDS011;70343;51.530;5.050;2023-07-29T08:55:42;2.28;;;1.67;;
80891;SDS011;70343;51.530;5.050;2023-07-29T08:58:22;3.60;;;1.40;;
80891;SDS011;70343;51.530;5.050;2023-07-29T09:03:40;2.92;;;1.58;;
80891;SDS011;70343;51.530;5.050;2023-07-29T09:06:54;2.15;;;1.52;;
80891;SDS011;70343;51.530;5.050;2023-07-29T09:09:47;1.85;;;1.35;;
80891;SDS011;70343;51.530;5.050;2023-07-29T09:12:31;1.80;;;1.27;;
80891;SDS011;70343;51.530;5.050;2023-07-29T09:15:34;1.67;;;1.25;;
80891;SDS011;70343;51.530;5.050;2023-07-29T09:21:38;2.00;;;1.38;;
80891;SDS011;70343;51.530;5.050;2023-07-29T09:28:07;2.30;;;1.30;;
80891;SDS011;70343;51.530;5.050;2023-07-29T09:30:45;2.65;;;1.15;;
80891;SDS011;70343;51.530;5.050;2023-07-29T09:33:43;2.97;;;1.42;;
80891;SDS011;70343;51.530;5.050;2023-07-29T09:36:54;1.92;;;1.45;;
80891;SDS011;70343;51.530;5.050;2023-07-29T09:42:56;1.63;;;1.25;;
80891;SDS011;70343;51.530;5.050;2023-07-29T09:45:28;3.88;;;1.60;;
80891;SDS011;70343;51.530;5.050;2023-07-29T09:55:19;2.17;;;1.98;;
80891;SDS011;70343;51.530;5.050;2023-07-29T09:58:28;2.35;;;1.70;;
80891;SDS011;70343;51.530;5.050;2023-07-29T10:01:30;2.75;;;2.22;;
80891;SDS011;70343;51.530;5.050;2023-07-29T10:07:56;3.25;;;1.70;;
80891;SDS011;70343;51.530;5.050;2023-07-29T10:11:26;2.13;;;1.90;;
80891;SDS011;70343;51.530;5.050;2023-07-29T10:31:17;2.70;;;1.70;;
80891;SDS011;70343;51.530;5.050;2023-07-29T10:34:54;1.80;;;1.70;;
80891;SDS011;70343;51.530;5.050;2023-07-29T10:37:56;3.13;;;1.80;;
80891;SDS011;70343;51.530;5.050;2023-07-29T10:47:13;2.65;;;2.17;;
80891;SDS011;70343;51.530;5.050;2023-07-29T10:55:46;2.20;;;1.70;;
80891;SDS011;70343;51.530;5.050;2023-07-29T10:58:21;2.25;;;1.90;;
80891;SDS011;70343;51.530;5.050;2023-07-29T11:01:45;2.90;;;2.05;;
80891;SDS011;70343;51.530;5.050;2023-07-29T11:05:04;3.75;;;1.90;;
80891;SDS011;70343;51.530;5.050;2023-07-29T11:08:22;3.17;;;1.88;;
80891;SDS011;70343;51.530;5.050;2023-07-29T11:11:17;3.55;;;2.40;;
80891;SDS011;70343;51.530;5.050;2023-07-29T11:14:04;6.43;;;2.45;;
80891;SDS011;70343;51.530;5.050;2023-07-29T11:16:46;4.13;;;2.30;;
80891;SDS011;70343;51.530;5.050;2023-07-29T11:19:26;3.28;;;1.80;;
80891;SDS011;70343;51.530;5.050;2023-07-29T11:22:11;4.13;;;3.05;;
80891;SDS011;70343;51.530;5.050;2023-07-29T11:25:03;4.35;;;2.45;;
80891;SDS011;70343;51.530;5.050;2023-07-29T11:28:09;2.70;;;2.13;;
80891;SDS011;70343;51.530;5.050;2023-07-29T11:30:38;4.75;;;1.85;;
80891;SDS011;70343;51.530;5.050;2023-07-29T11:33:12;2.60;;;2.20;;
80891;SDS011;70343;51.530;5.050;2023-07-29T11:35:41;2.10;;;1.90;;
80891;SDS011;70343;51.530;5.050;2023-07-29T11:38:22;2.70;;;1.92;;
80891;SDS011;70343;51.530;5.050;2023-07-29T11:41:00;3.42;;;2.85;;
80891;SDS011;70343;51.530;5.050;2023-07-29T11:43:34;4.32;;;3.92;;
80891;SDS011;70343;51.530;5.050;2023-07-29T11:46:13;4.35;;;3.97;;
80891;SDS011;70343;51.530;5.050;2023-07-29T11:48:53;6.88;;;4.40;;
80891;SDS011;70343;51.530;5.050;2023-07-29T11:51:41;5.88;;;4.88;;
80891;SDS011;70343;51.530;5.050;2023-07-29T11:54:21;4.32;;;3.92;;
80891;SDS011;70343;51.530;5.050;2023-07-29T11:56:55;5.70;;;4.60;;
80891;SDS011;70343;51.530;5.050;2023-07-29T11:59:43;10.30;;;5.38;;
80891;SDS011;70343;51.530;5.050;2023-07-29T12:02:23;9.80;;;7.20;;
80891;SDS011;70343;51.530;5.050;2023-07-29T12:04:52;16.65;;;6.82;;
80891;SDS011;70343;51.530;5.050;2023-07-29T12:07:24;10.65;;;6.88;;
80891;SDS011;70343;51.530;5.050;2023-07-29T12:10:05;9.07;;;6.93;;
80891;SDS011;70343;51.530;5.050;2023-07-29T12:12:57;11.65;;;7.68;;
80891;SDS011;70343;51.530;5.050;2023-07-29T12:15:37;16.88;;;12.05;;
80891;SDS011;70343;51.530;5.050;2023-07-29T12:18:10;12.00;;;9.10;;
80891;SDS011;70343;51.530;5.050;2023-07-29T12:20:57;9.02;;;5.95;;
80891;SDS011;70343;51.530;5.050;2023-07-29T12:23:48;10.02;;;6.28;;
80891;SDS011;70343;51.530;5.050;2023-07-29T12:26:48;7.15;;;5.10;;
80891;SDS011;70343;51.530;5.050;2023-07-29T12:29:25;5.47;;;4.35;;
80891;SDS011;70343;51.530;5.050;2023-07-29T12:32:05;3.47;;;3.05;;
80891;SDS011;70343;51.530;5.050;2023-07-29T12:34:44;4.45;;;3.47;;
80891;SDS011;70343;51.530;5.050;2023-07-29T12:37:38;4.63;;;4.10;;
80891;SDS011;70343;51.530;5.050;2023-07-29T12:40:22;4.10;;;3.42;;
80891;SDS011;70343;51.530;5.050;2023-07-29T12:43:00;4.07;;;3.70;;
80891;SDS011;70343;51.530;5.050;2023-07-29T12:45:35;4.10;;;3.80;;
80891;SDS011;70343;51.530;5.050;2023-07-29T12:48:10;4.25;;;3.70;;
80891;SDS011;70343;51.530;5.050;2023-07-29T12:50:55;5.13;;;4.60;;
80891;SDS011;70343;51.530;5.050;2023-07-29T12:53:37;4.80;;;4.40;;
80891;SDS011;70343;51.530;5.050;2023-07-29T12:56:43;4.75;;;4.25;;
80891;SDS011;70343;51.530;5.050;2023-07-29T12:59:39;4.57;;;3.83;;
80891;SDS011;70343;51.530;5.050;2023-07-29T13:02:44;3.90;;;3.55;;
80891;SDS011;70343;51.530;5.050;2023-07-29T13:05:48;3.65;;;3.30;;
80891;SDS011;70343;51.530;5.050;2023-07-29T13:08:50;2.60;;;2.40;;
80891;SDS011;70343;51.530;5.050;2023-07-29T13:14:30;3.72;;;2.20;;
80891;SDS011;70343;51.530;5.050;2023-07-29T13:17:20;2.60;;;2.40;;
80891;SDS011;70343;51.530;5.050;2023-07-29T13:19:57;2.78;;;1.75;;
80891;SDS011;70343;51.530;5.050;2023-07-29T13:22:55;1.73;;;1.63;;
80891;SDS011;70343;51.530;5.050;2023-07-29T13:25:35;6.00;;;2.25;;
80891;SDS011;70343;51.530;5.050;2023-07-29T13:28:56;2.30;;;1.75;;
80891;SDS011;70343;51.530;5.050;2023-07-29T13:31:29;2.05;;;1.90;;
80891;SDS011;70343;51.530;5.050;2023-07-29T13:34:06;1.73;;;1.63;;
80891;SDS011;70343;51.530;5.050;2023-07-29T13:36:41;2.25;;;1.90;;
80891;SDS011;70343;51.530;5.050;2023-07-29T13:42:13;3.28;;;1.70;;
80891;SDS011;70343;51.530;5.050;2023-07-29T13:44:59;2.10;;;1.83;;
80891;SDS011;70343;51.530;5.050;2023-07-29T13:47:37;2.72;;;2.10;;
80891;SDS011;70343;51.530;5.050;2023-07-29T13:53:03;6.50;;;2.78;;
80891;SDS011;70343;51.530;5.050;2023-07-29T13:56:06;2.50;;;2.30;;
80891;SDS011;70343;51.530;5.050;2023-07-29T13:58:51;2.20;;;2.00;;
80891;SDS011;70343;51.530;5.050;2023-07-29T14:01:30;2.60;;;2.40;;
80891;SDS011;70343;51.530;5.050;2023-07-29T14:04:05;3.35;;;2.80;;
80891;SDS011;70343;51.530;5.050;2023-07-29T14:06:52;2.60;;;2.40;;
80891;SDS011;70343;51.530;5.050;2023-07-29T14:09:36;2.75;;;2.28;;
80891;SDS011;70343;51.530;5.050;2023-07-29T14:12:15;2.50;;;2.30;;
80891;SDS011;70343;51.530;5.050;2023-07-29T14:15:10;2.50;;;2.30;;
80891;SDS011;70343;51.530;5.050;2023-07-29T14:17:51;2.88;;;2.53;;
80891;SDS011;70343;51.530;5.050;2023-07-29T14:20:32;2.55;;;2.35;;
80891;SDS011;70343;51.530;5.050;2023-07-29T14:23:08;2.85;;;2.30;;
80891;SDS011;70343;51.530;5.050;2023-07-29T14:29:00;2.30;;;2.10;;
80891;SDS011;70343;51.530;5.050;2023-07-29T14:31:39;2.85;;;2.55;;
80891;SDS011;70343;51.530;5.050;2023-07-29T14:37:18;2.65;;;2.45;;
80891;SDS011;70343;51.530;5.050;2023-07-29T14:39:52;3.33;;;2.35;;
80891;SDS011;70343;51.530;5.050;2023-07-29T14:42:44;2.72;;;2.53;;
80891;SDS011;70343;51.530;5.050;2023-07-29T14:45:19;4.47;;;2.78;;
80891;SDS011;70343;51.530;5.050;2023-07-29T14:48:14;2.80;;;2.60;;
80891;SDS011;70343;51.530;5.050;2023-07-29T14:51:00;2.33;;;2.13;;
80891;SDS011;70343;51.530;5.050;2023-07-29T14:54:37;3.47;;;2.35;;
80891;SDS011;70343;51.530;5.050;2023-07-29T14:57:24;2.58;;;2.38;;
80891;SDS011;70343;51.530;5.050;2023-07-29T15:00:27;3.13;;;2.05;;
80891;SDS011;70343;51.530;5.050;2023-07-29T15:03:32;2.30;;;2.10;;
80891;SDS011;70343;51.530;5.050;2023-07-29T15:09:00;2.53;;;2.33;;
80891;SDS011;70343;51.530;5.050;2023-07-29T15:11:29;4.45;;;2.25;;
80891;SDS011;70343;51.530;5.050;2023-07-29T15:14:15;3.55;;;2.47;;
80891;SDS011;70343;51.530;5.050;2023-07-29T15:17:28;3.00;;;2.70;;
80891;SDS011;70343;51.530;5.050;2023-07-29T15:20:29;3.80;;;2.33;;
80891;SDS011;70343;51.530;5.050;2023-07-29T15:23:11;2.28;;;1.80;;
80891;SDS011;70343;51.530;5.050;2023-07-29T15:26:03;3.10;;;2.80;;
80891;SDS011;70343;51.530;5.050;2023-07-29T15:28:43;4.65;;;4.03;;
80891;SDS011;70343;51.530;5.050;2023-07-29T15:31:23;6.20;;;4.18;;
80891;SDS011;70343;51.530;5.050;2023-07-29T15:34:35;3.92;;;3.63;;
80891;SDS011;70343;51.530;5.050;2023-07-29T15:37:29;3.47;;;3.17;;
80891;SDS011;70343;51.530;5.050;2023-07-29T15:40:05;4.57;;;3.05;;
80891;SDS011;70343;51.530;5.050;2023-07-29T15:43:00;5.38;;;3.40;;
80891;SDS011;70343;51.530;5.050;2023-07-29T15:45:45;3.50;;;2.85;;
80891;SDS011;70343;51.530;5.050;2023-07-29T15:48:29;4.10;;;2.88;;
80891;SDS011;70343;51.530;5.050;2023-07-29T15:51:13;3.42;;;2.90;;
80891;SDS011;70343;51.530;5.050;2023-07-29T15:53:52;3.47;;;2.83;;
80891;SDS011;70343;51.530;5.050;2023-07-29T15:56:33;4.25;;;3.38;;
80891;SDS011;70343;51.530;5.050;2023-07-29T15:59:14;3.65;;;3.35;;
80891;SDS011;70343;51.530;5.050;2023-07-29T16:01:47;4.65;;;3.50;;
80891;SDS011;70343;51.530;5.050;2023-07-29T16:07:48;4.40;;;3.58;;
80891;SDS011;70343;51.530;5.050;2023-07-29T16:10:40;2.85;;;2.60;;
80891;SDS011;70343;51.530;5.050;2023-07-29T16:13:34;3.25;;;2.33;;
80891;SDS011;70343;51.530;5.050;2023-07-29T16:16:06;2.10;;;1.90;;
80891;SDS011;70343;51.530;5.050;2023-07-29T16:18:46;2.67;;;2.40;;
80891;SDS011;70343;51.530;5.050;2023-07-29T16:21:39;3.03;;;2.75;;
80891;SDS011;70343;51.530;5.050;2023-07-29T16:24:22;2.65;;;2.08;;
80891;SDS011;70343;51.530;5.050;2023-07-29T16:27:22;3.33;;;2.42;;
80891;SDS011;70343;51.530;5.050;2023-07-29T16:30:12;1.92;;;1.75;;
80891;SDS011;70343;51.530;5.050;2023-07-29T16:33:14;3.00;;;2.13;;
80891;SDS011;70343;51.530;5.050;2023-07-29T16:36:11;2.17;;;1.60;;
80891;SDS011;70343;51.530;5.050;2023-07-29T16:39:08;2.00;;;1.80;;
80891;SDS011;70343;51.530;5.050;2023-07-29T16:41:48;2.67;;;1.70;;
80891;SDS011;70343;51.530;5.050;2023-07-29T16:44:28;2.30;;;1.60;;
80891;SDS011;70343;51.530;5.050;2023-07-29T16:46:58;1.63;;;1.52;;
80891;SDS011;70343;51.530;5.050;2023-07-29T16:49:37;1.60;;;1.50;;
80891;SDS011;70343;51.530;5.050;2023-07-29T16:52:15;1.27;;;1.10;;
80891;SDS011;70343;51.530;5.050;2023-07-29T16:54:57;1.48;;;1.30;;
80891;SDS011;70343;51.530;5.050;2023-07-29T16:57:48;1.52;;;1.05;;
80891;SDS011;70343;51.530;5.050;2023-07-29T17:00:31;1.85;;;1.33;;
80891;SDS011;70343;51.530;5.050;2023-07-29T17:05:53;1.50;;;1.38;;
80891;SDS011;70343;51.530;5.050;2023-07-29T17:08:51;1.65;;;0.85;;
80891;SDS011;70343;51.530;5.050;2023-07-29T17:11:27;1.27;;;1.02;;
80891;SDS011;70343;51.530;5.050;2023-07-29T17:13:59;2.65;;;1.20;;
80891;SDS011;70343;51.530;5.050;2023-07-29T17:16:47;1.58;;;1.00;;
80891;SDS011;70343;51.530;5.050;2023-07-29T17:19:35;2.65;;;1.63;;
80891;SDS011;70343;51.530;5.050;2023-07-29T17:30:38;2.35;;;1.00;;
80891;SDS011;70343;51.530;5.050;2023-07-29T17:33:22;1.10;;;1.00;;
80891;SDS011;70343;51.530;5.050;2023-07-29T17:36:25;1.73;;;1.20;;
80891;SDS011;70343;51.530;5.050;2023-07-29T17:41:45;2.08;;;1.20;;
80891;SDS011;70343;51.530;5.050;2023-07-29T17:44:50;1.40;;;1.30;;
80891;SDS011;70343;51.530;5.050;2023-07-29T17:47:38;2.83;;;1.55;;
80891;SDS011;70343;51.530;5.050;2023-07-29T17:50:24;1.50;;;1.40;;
80891;SDS011;70343;51.530;5.050;2023-07-29T17:53:04;1.65;;;1.55;;
80891;SDS011;70343;51.530;5.050;2023-07-29T17:55:46;1.88;;;1.40;;
80891;SDS011;70343;51.530;5.050;2023-07-29T17:58:51;1.83;;;1.52;;
80891;SDS011;70343;51.530;5.050;2023-07-29T18:01:23;2.60;;;1.60;;
80891;SDS011;70343;51.530;5.050;2023-07-29T18:04:03;3.47;;;1.75;;
80891;SDS011;70343;51.530;5.050;2023-07-29T18:06:35;2.38;;;1.58;;
80891;SDS011;70343;51.530;5.050;2023-07-29T18:09:19;2.95;;;1.80;;
80891;SDS011;70343;51.530;5.050;2023-07-29T18:11:54;2.67;;;1.80;;
80891;SDS011;70343;51.530;5.050;2023-07-29T18:14:30;3.05;;;1.80;;
80891;SDS011;70343;51.530;5.050;2023-07-29T18:17:01;3.92;;;1.83;;
80891;SDS011;70343;51.530;5.050;2023-07-29T18:19:29;4.78;;;1.90;;
80891;SDS011;70343;51.530;5.050;2023-07-29T18:22:18;2.53;;;1.55;;
80891;SDS011;70343;51.530;5.050;2023-07-29T18:25:07;1.83;;;1.63;;
80891;SDS011;70343;51.530;5.050;2023-07-29T18:27:45;2.63;;;1.77;;
80891;SDS011;70343;51.530;5.050;2023-07-29T18:30:31;4.32;;;1.92;;
80891;SDS011;70343;51.530;5.050;2023-07-29T18:33:29;3.72;;;2.08;;
80891;SDS011;70343;51.530;5.050;2023-07-29T18:36:12;2.95;;;1.70;;
80891;SDS011;70343;51.530;5.050;2023-07-29T18:38:45;4.97;;;2.13;;
80891;SDS011;70343;51.530;5.050;2023-07-29T18:41:37;4.18;;;1.85;;
80891;SDS011;70343;51.530;5.050;2023-07-29T18:44:06;4.13;;;2.60;;
80891;SDS011;70343;51.530;5.050;2023-07-29T18:46:42;3.83;;;1.85;;
80891;SDS011;70343;51.530;5.050;2023-07-29T18:49:16;4.65;;;2.00;;
80891;SDS011;70343;51.530;5.050;2023-07-29T18:52:03;9.40;;;2.50;;
80891;SDS011;70343;51.530;5.050;2023-07-29T18:54:33;4.43;;;2.45;;
80891;SDS011;70343;51.530;5.050;2023-07-29T18:57:14;3.72;;;2.20;;
80891;SDS011;70343;51.530;5.050;2023-07-29T19:00:25;4.78;;;2.47;;
80891;SDS011;70343;51.530;5.050;2023-07-29T19:03:11;6.05;;;2.67;;
80891;SDS011;70343;51.530;5.050;2023-07-29T19:08:19;9.15;;;2.80;;
80891;SDS011;70343;51.530;5.050;2023-07-29T19:10:49;10.05;;;3.03;;
80891;SDS011;70343;51.530;5.050;2023-07-29T19:13:40;6.93;;;2.67;;
80891;SDS011;70343;51.530;5.050;2023-07-29T19:16:44;4.35;;;2.35;;
80891;SDS011;70343;51.530;5.050;2023-07-29T19:19:33;6.13;;;1.92;;
80891;SDS011;70343;51.530;5.050;2023-07-29T19:22:32;6.32;;;2.30;;
80891;SDS011;70343;51.530;5.050;2023-07-29T19:25:12;3.50;;;1.90;;
80891;SDS011;70343;51.530;5.050;2023-07-29T19:28:15;5.18;;;2.15;;
80891;SDS011;70343;51.530;5.050;2023-07-29T19:30:46;5.30;;;2.13;;
80891;SDS011;70343;51.530;5.050;2023-07-29T19:33:23;4.28;;;1.95;;
80891;SDS011;70343;51.530;5.050;2023-07-29T19:39:07;4.25;;;2.22;;
80891;SDS011;70343;51.530;5.050;2023-07-29T19:41:42;5.75;;;2.15;;
80891;SDS011;70343;51.530;5.050;2023-07-29T19:44:27;4.10;;;2.08;;
80891;SDS011;70343;51.530;5.050;2023-07-29T19:47:05;5.20;;;2.42;;
80891;SDS011;70343;51.530;5.050;2023-07-29T19:50:20;5.57;;;2.20;;
80891;SDS011;70343;51.530;5.050;2023-07-29T19:53:06;4.43;;;1.90;;
80891;SDS011;70343;51.530;5.050;2023-07-29T19:55:37;5.55;;;2.13;;
80891;SDS011;70343;51.530;5.050;2023-07-29T19:58:25;4.00;;;2.22;;
80891;SDS011;70343;51.530;5.050;2023-07-29T20:00:59;3.72;;;2.38;;
80891;SDS011;70343;51.530;5.050;2023-07-29T20:03:40;5.13;;;2.00;;
80891;SDS011;70343;51.530;5.050;2023-07-29T20:06:09;4.68;;;2.08;;
80891;SDS011;70343;51.530;5.050;2023-07-29T20:09:08;4.95;;;2.40;;
80891;SDS011;70343;51.530;5.050;2023-07-29T20:11:39;4.13;;;2.58;;
80891;SDS011;70343;51.530;5.050;2023-07-29T20:14:10;4.63;;;2.65;;
80891;SDS011;70343;51.530;5.050;2023-07-29T20:17:01;5.65;;;2.50;;
80891;SDS011;70343;51.530;5.050;2023-07-29T20:19:38;10.27;;;3.30;;
80891;SDS011;70343;51.530;5.050;2023-07-29T20:22:10;10.60;;;3.53;;
80891;SDS011;70343;51.530;5.050;2023-07-29T20:24:44;6.25;;;3.05;;
80891;SDS011;70343;51.530;5.050;2023-07-29T20:29:58;6.60;;;2.60;;
80891;SDS011;70343;51.530;5.050;2023-07-29T20:32:27;6.03;;;2.75;;
80891;SDS011;70343;51.530;5.050;2023-07-29T20:35:01;6.82;;;2.47;;
80891;SDS011;70343;51.530;5.050;2023-07-29T20:37:42;5.35;;;2.38;;
80891;SDS011;70343;51.530;5.050;2023-07-29T20:40:25;5.95;;;2.47;;
80891;SDS011;70343;51.530;5.050;2023-07-29T20:43:20;6.45;;;2.20;;
80891;SDS011;70343;51.530;5.050;2023-07-29T20:46:33;6.82;;;3.03;;
80891;SDS011;70343;51.530;5.050;2023-07-29T20:49:33;6.93;;;2.42;;
80891;SDS011;70343;51.530;5.050;2023-07-29T20:52:27;6.18;;;2.47;;
80891;SDS011;70343;51.530;5.050;2023-07-29T20:55:10;5.72;;;2.72;;
80891;SDS011;70343;51.530;5.050;2023-07-29T20:58:08;9.27;;;2.35;;
80891;SDS011;70343;51.530;5.050;2023-07-29T21:01:01;5.93;;;2.33;;
80891;SDS011;70343;51.530;5.050;2023-07-29T21:03:57;6.55;;;2.30;;
80891;SDS011;70343;51.530;5.050;2023-07-29T21:09:26;5.05;;;2.65;;
80891;SDS011;70343;51.530;5.050;2023-07-29T21:11:57;4.25;;;2.15;;
80891;SDS011;70343;51.530;5.050;2023-07-29T21:14:26;4.63;;;2.30;;
80891;SDS011;70343;51.530;5.050;2023-07-29T21:17:03;8.65;;;2.70;;
80891;SDS011;70343;51.530;5.050;2023-07-29T21:19:47;5.97;;;2.60;;
80891;SDS011;70343;51.530;5.050;2023-07-29T21:22:28;6.07;;;2.40;;
80891;SDS011;70343;51.530;5.050;2023-07-29T21:25:02;5.55;;;2.40;;
80891;SDS011;70343;51.530;5.050;2023-07-29T21:27:39;6.93;;;3.28;;
80891;SDS011;70343;51.530;5.050;2023-07-29T21:30:22;5.85;;;2.88;;
80891;SDS011;70343;51.530;5.050;2023-07-29T21:36:11;6.55;;;2.85;;
80891;SDS011;70343;51.530;5.050;2023-07-29T21:38:53;4.15;;;2.67;;
80891;SDS011;70343;51.530;5.050;2023-07-29T21:45:42;8.07;;;2.90;;
80891;SDS011;70343;51.530;5.050;2023-07-29T21:48:31;6.20;;;3.00;;
80891;SDS011;70343;51.530;5.050;2023-07-29T21:51:32;7.65;;;3.00;;
80891;SDS011;70343;51.530;5.050;2023-07-29T21:55:06;5.97;;;2.42;;
80891;SDS011;70343;51.530;5.050;2023-07-29T21:58:24;8.50;;;2.90;;
80891;SDS011;70343;51.530;5.050;2023-07-29T22:01:13;4.80;;;2.92;;
80891;SDS011;70343;51.530;5.050;2023-07-29T22:07:15;8.00;;;2.67;;
80891;SDS011;70343;51.530;5.050;2023-07-29T22:10:05;7.47;;;2.60;;
80891;SDS011;70343;51.530;5.050;2023-07-29T22:12:44;8.70;;;2.97;;
80891;SDS011;70343;51.530;5.050;2023-07-29T22:15:28;3.47;;;2.15;;
80891;SDS011;70343;51.530;5.050;2023-07-29T22:17:54;5.22;;;2.90;;